Terminal Aerodrome Forecast
Issued by NWS Charleston, WV

Current Version | Previous Version | Graphics & Text | Print | Product List | Glossary On
Versions: 1 2 3 4 5 6 7 8 9 10 11 12 13 14 15 16 17 18 19 20 21 22 23 24 25 26
112
FTUS41 KRLX 241740 AAB
TAFEKN
TAF AMD
KEKN 241740Z 2418/2518 20008KT P6SM FEW060
     FM242100 18009G15KT P6SM FEW200
     FM250100 17010G20KT P6SM FEW200
     FM251100 19009G18KT 6SM -SHRA BR OVC040
     FM251500 23010G22KT 3SM -SHRA OVC040=

USA.gov is the U.S. government's official web portal to all federal, state and local government web resources and services.